Station Historical Data
Daily Summary for May 2, 2017 Units:  Both    English   Metric
« Previous Day
Next Day »
Daily Weekly Monthly Yearly Custom
  High: Low: Average:
Temperature: 53.3 °F /  11.8 °C 45.8 °F /  7.7 °C 48.3 °F /  9.1 °C
Dew Point: 46.5 °F /  8.1 °C 39.8 °F /  4.3 °C 42.4 °F /  5.8 °C
Humidity: 87% 72% 80%
Wind Speed: 24.0mph /  38.6km/h - 8.5mph /  13.7km/h
Wind Gust: 30.0mph /  48.3km/h - -
Wind- - SW
Pressure: 29.77 in /  1008 hPa 29.53 in /  999.9 hPa -
Precipitation: 0.05 in /  1.27 mm    
Historical Graphs
 
 
Tabular Data for May 2, 2017
Time Temperature Dew Point Pressure Wind Wind Speed Wind Gust Humidity Rainfall Rate (Hourly)
00:00 51.2 °F /  10.7 °C 46.2 °F /  7.9 °C 29.57in /  1001.2hPa SSW 4.0mph /  6.4km/h 18.0mph /  29km/h 83% 0.00in /  0mm
00:05 51.2 °F /  10.7 °C 46.2 °F /  7.9 °C 29.56in /  1000.9hPa SW 9.0mph /  14.5km/h 18.0mph /  29km/h 83% 0.00in /  0mm
00:10 51.1 °F /  10.6 °C 46.1 °F /  7.8 °C 29.57in /  1001.2hPa SW 9.0mph /  14.5km/h 18.0mph /  29km/h 83% 0.00in /  0mm
00:15 51.3 °F /  10.7 °C 46.0 °F /  7.8 °C 29.57in /  1001.2hPa WSW 9.0mph /  14.5km/h 20.0mph /  32.2km/h 82% 0.00in /  0mm
00:20 51.5 °F /  10.8 °C 46.2 °F /  7.9 °C 29.57in /  1001.2hPa WSW 10.0mph /  16.1km/h 20.0mph /  32.2km/h 82% 0.00in /  0mm
00:25 51.5 °F /  10.8 °C 46.2 °F /  7.9 °C 29.57in /  1001.2hPa SW 10.0mph /  16.1km/h 20.0mph /  32.2km/h 82% 0.00in /  0mm
00:30 51.4 °F /  10.8 °C 46.1 °F /  7.8 °C 29.58in /  1001.6hPa SW 16.0mph /  25.7km/h 21.0mph /  33.8km/h 82% 0.00in /  0mm
00:35 51.1 °F /  10.6 °C 46.1 °F /  7.8 °C 29.58in /  1001.6hPa WSW 10.0mph /  16.1km/h 17.0mph /  27.4km/h 83% 0.00in /  0mm
00:40 50.8 °F /  10.4 °C 45.8 °F /  7.7 °C 29.58in /  1001.6hPa SW 8.0mph /  12.9km/h 19.0mph /  30.6km/h 83% 0.00in /  0mm
00:45 50.7 °F /  10.4 °C 45.7 °F /  7.6 °C 29.57in /  1001.2hPa WSW 6.0mph /  9.7km/h 15.0mph /  24.1km/h 83% 0.00in /  0mm
00:50 50.5 °F /  10.3 °C 45.5 °F /  7.5 °C 29.57in /  1001.2hPa West 7.0mph /  11.3km/h 11.0mph /  17.7km/h 83% 0.00in /  0mm
00:55 50.5 °F /  10.3 °C 45.5 °F /  7.5 °C 29.57in /  1001.2hPa WSW 7.0mph /  11.3km/h 12.0mph /  19.3km/h 83% 0.00in /  0mm
01:00 50.3 °F /  10.2 °C 45.3 °F /  7.4 °C 29.58in /  1001.6hPa SSW 9.0mph /  14.5km/h 13.0mph /  20.9km/h 83% 0.00in /  0mm
01:05 50.0 °F /  10 °C 45.0 °F /  7.2 °C 29.58in /  1001.6hPa SW 6.0mph /  9.7km/h 16.0mph /  25.7km/h 83% 0.00in /  0mm
01:10 49.6 °F /  9.8 °C 44.6 °F /  7 °C 29.58in /  1001.6hPa SW 6.0mph /  9.7km/h 16.0mph /  25.7km/h 83% 0.00in /  0mm
01:15 49.3 °F /  9.6 °C 44.4 °F /  6.9 °C 29.59in /  1001.9hPa SW 6.0mph /  9.7km/h 15.0mph /  24.1km/h 83% 0.00in /  0mm
01:20 49.1 °F /  9.5 °C 44.5 °F /  6.9 °C 29.58in /  1001.6hPa SW 6.0mph /  9.7km/h 15.0mph /  24.1km/h 84% 0.00in /  0mm
01:25 49.1 °F /  9.5 °C 44.5 °F /  6.9 °C 29.59in /  1001.9hPa WSW 8.0mph /  12.9km/h 15.0mph /  24.1km/h 84% 0.00in /  0mm
01:30 49.1 °F /  9.5 °C 44.5 °F /  6.9 °C 29.59in /  1001.9hPa SW 7.0mph /  11.3km/h 13.0mph /  20.9km/h 84% 0.00in /  0mm
01:35 49.2 °F /  9.6 °C 44.6 °F /  7 °C 29.59in /  1001.9hPa SW 7.0mph /  11.3km/h 15.0mph /  24.1km/h 84% 0.00in /  0mm
01:40 49.2 °F /  9.6 °C 44.6 °F /  7 °C 29.59in /  1001.9hPa WSW 5.0mph /  8km/h 13.0mph /  20.9km/h 84% 0.00in /  0mm
01:45 49.2 °F /  9.6 °C 44.3 °F /  6.8 °C 29.59in /  1001.9hPa SSW 7.0mph /  11.3km/h 13.0mph /  20.9km/h 83% 0.00in /  0mm
01:50 49.1 °F /  9.5 °C 44.2 °F /  6.8 °C 29.59in /  1001.9hPa SW 4.0mph /  6.4km/h 16.0mph /  25.7km/h 83% 0.00in /  0mm
01:55 48.9 °F /  9.4 °C 44.0 °F /  6.7 °C 29.59in /  1001.9hPa ENE 2.0mph /  3.2km/h 10.0mph /  16.1km/h 83% 0.00in /  0mm
02:00 48.9 °F /  9.4 °C 44.0 °F /  6.7 °C 29.58in /  1001.6hPa SW 7.0mph /  11.3km/h 14.0mph /  22.5km/h 83% 0.00in /  0mm
02:05 49.0 °F /  9.4 °C 43.7 °F /  6.5 °C 29.59in /  1001.9hPa SW 7.0mph /  11.3km/h 14.0mph /  22.5km/h 82% 0.00in /  0mm
02:10 49.0 °F /  9.4 °C 43.7 °F /  6.5 °C 29.58in /  1001.6hPa SW 6.0mph /  9.7km/h 13.0mph /  20.9km/h 82% 0.00in /  0mm
02:15 49.0 °F /  9.4 °C 43.7 °F /  6.5 °C 29.58in /  1001.6hPa SW 6.0mph /  9.7km/h 13.0mph /  20.9km/h 82% 0.00in /  0mm
02:20 48.9 °F /  9.4 °C 43.6 °F /  6.4 °C 29.58in /  1001.6hPa SW 4.0mph /  6.4km/h 13.0mph /  20.9km/h 82% 0.00in /  0mm
02:25 48.8 °F /  9.3 °C 43.5 °F /  6.4 °C 29.58in /  1001.6hPa WSW 5.0mph /  8km/h 11.0mph /  17.7km/h 82% 0.00in /  0mm
02:30 48.7 °F /  9.3 °C 43.5 °F /  6.4 °C 29.58in /  1001.6hPa West 4.0mph /  6.4km/h 11.0mph /  17.7km/h 82% 0.00in /  0mm
02:35 48.4 °F /  9.1 °C 43.2 °F /  6.2 °C 29.58in /  1001.6hPa WSW 5.0mph /  8km/h 11.0mph /  17.7km/h 82% 0.00in /  0mm
02:40 48.3 °F /  9.1 °C 43.4 °F /  6.3 °C 29.58in /  1001.6hPa SW 6.0mph /  9.7km/h 12.0mph /  19.3km/h 83% 0.00in /  0mm
02:45 48.2 °F /  9 °C 43.3 °F /  6.3 °C 29.58in /  1001.6hPa SW 6.0mph /  9.7km/h 12.0mph /  19.3km/h 83% 0.00in /  0mm
02:50 48.1 °F /  8.9 °C 43.5 °F /  6.4 °C 29.58in /  1001.6hPa West 2.0mph /  3.2km/h 8.0mph /  12.9km/h 84% 0.00in /  0mm
02:55 48.0 °F /  8.9 °C 43.4 °F /  6.3 °C 29.58in /  1001.6hPa SW 6.0mph /  9.7km/h 10.0mph /  16.1km/h 84% 0.00in /  0mm
03:00 48.1 °F /  8.9 °C 43.5 °F /  6.4 °C 29.58in /  1001.6hPa SSW 4.0mph /  6.4km/h 8.0mph /  12.9km/h 84% 0.00in /  0mm
03:05 48.1 °F /  8.9 °C 43.5 °F /  6.4 °C 29.58in /  1001.6hPa SW 4.0mph /  6.4km/h 9.0mph /  14.5km/h 84% 0.00in /  0mm
03:10 48.0 °F /  8.9 °C 43.4 °F /  6.3 °C 29.58in /  1001.6hPa SW 4.0mph /  6.4km/h 9.0mph /  14.5km/h 84% 0.00in /  0mm
03:15 48.1 °F /  8.9 °C 43.5 °F /  6.4 °C 29.58in /  1001.6hPa WSW 4.0mph /  6.4km/h 11.0mph /  17.7km/h 84% 0.00in /  0mm
03:20 48.2 °F /  9 °C 43.6 °F /  6.4 °C 29.58in /  1001.6hPa SW 7.0mph /  11.3km/h 11.0mph /  17.7km/h 84% 0.00in /  0mm
03:25 48.2 °F /  9 °C 43.3 °F /  6.3 °C 29.58in /  1001.6hPa SW 7.0mph /  11.3km/h 11.0mph /  17.7km/h 83% 0.00in /  0mm
03:30 48.2 °F /  9 °C 43.6 °F /  6.4 °C 29.58in /  1001.6hPa WSW 5.0mph /  8km/h 8.0mph /  12.9km/h 84% 0.00in /  0mm
03:35 48.1 °F /  8.9 °C 43.5 °F /  6.4 °C 29.58in /  1001.6hPa SW 3.0mph /  4.8km/h 9.0mph /  14.5km/h 84% 0.00in /  0mm
03:40 48.1 °F /  8.9 °C 43.5 °F /  6.4 °C 29.58in /  1001.6hPa SW 5.0mph /  8km/h 10.0mph /  16.1km/h 84% 0.00in /  0mm
03:45 48.1 °F /  8.9 °C 43.5 °F /  6.4 °C 29.58in /  1001.6hPa SW 5.0mph /  8km/h 10.0mph /  16.1km/h 84% 0.00in /  0mm
03:50 48.2 °F /  9 °C 43.6 °F /  6.4 °C 29.58in /  1001.6hPa SW 3.0mph /  4.8km/h 9.0mph /  14.5km/h 84% 0.00in /  0mm
03:55 48.2 °F /  9 °C 43.3 °F /  6.3 °C 29.58in /  1001.6hPa SSW 2.0mph /  3.2km/h 14.0mph /  22.5km/h 83% 0.00in /  0mm
04:00 48.3 °F /  9.1 °C 43.4 °F /  6.3 °C 29.58in /  1001.6hPa WSW 3.0mph /  4.8km/h 7.0mph /  11.3km/h 83% 0.00in /  0mm
04:05 48.3 °F /  9.1 °C 43.4 °F /  6.3 °C 29.58in /  1001.6hPa SW 4.0mph /  6.4km/h 13.0mph /  20.9km/h 83% 0.00in /  0mm
04:10 48.3 °F /  9.1 °C 43.4 °F /  6.3 °C 29.58in /  1001.6hPa SW 5.0mph /  8km/h 13.0mph /  20.9km/h 83% 0.00in /  0mm
04:15 48.3 °F /  9.1 °C 43.4 °F /  6.3 °C 29.58in /  1001.6hPa SW 5.0mph /  8km/h 11.0mph /  17.7km/h 83% 0.00in /  0mm
04:20 48.2 °F /  9 °C 43.3 °F /  6.3 °C 29.58in /  1001.6hPa SW 5.0mph /  8km/h 11.0mph /  17.7km/h 83% 0.00in /  0mm
04:25 48.2 °F /  9 °C 43.3 °F /  6.3 °C 29.58in /  1001.6hPa SW 5.0mph /  8km/h 11.0mph /  17.7km/h 83% 0.00in /  0mm
04:30 48.3 °F /  9.1 °C 43.4 °F /  6.3 °C 29.58in /  1001.6hPa SW 5.0mph /  8km/h 10.0mph /  16.1km/h 83% 0.00in /  0mm
04:35 48.4 °F /  9.1 °C 43.5 °F /  6.4 °C 29.58in /  1001.6hPa SW 5.0mph /  8km/h 11.0mph /  17.7km/h 83% 0.00in /  0mm
04:40 48.3 °F /  9.1 °C 43.1 °F /  6.2 °C 29.58in /  1001.6hPa SSW 6.0mph /  9.7km/h 14.0mph /  22.5km/h 82% 0.00in /  0mm
04:45 48.3 °F /  9.1 °C 43.1 °F /  6.2 °C 29.58in /  1001.6hPa SW 7.0mph /  11.3km/h 12.0mph /  19.3km/h 82% 0.00in /  0mm
04:50 48.3 °F /  9.1 °C 43.4 °F /  6.3 °C 29.58in /  1001.6hPa SW 5.0mph /  8km/h 12.0mph /  19.3km/h 83% 0.00in /  0mm
04:55 48.3 °F /  9.1 °C 43.1 °F /  6.2 °C 29.58in /  1001.6hPa SW 4.0mph /  6.4km/h 12.0mph /  19.3km/h 82% 0.00in /  0mm
05:00 48.4 °F /  9.1 °C 43.2 °F /  6.2 °C 29.58in /  1001.6hPa SW 6.0mph /  9.7km/h 9.0mph /  14.5km/h 82% 0.00in /  0mm
05:05 48.5 °F /  9.2 °C 43.3 °F /  6.3 °C 29.58in /  1001.6hPa SW 5.0mph /  8km/h 10.0mph /  16.1km/h 82% 0.00in /  0mm
05:10 48.5 °F /  9.2 °C 43.3 °F /  6.3 °C 29.58in /  1001.6hPa SW 5.0mph /  8km/h 10.0mph /  16.1km/h 82% 0.00in /  0mm
05:15 48.6 °F /  9.2 °C 43.4 °F /  6.3 °C 29.58in /  1001.6hPa SW 5.0mph /  8km/h 10.0mph /  16.1km/h 82% 0.00in /  0mm
05:20 48.8 °F /  9.3 °C 43.5 °F /  6.4 °C 29.58in /  1001.6hPa SW 5.0mph /  8km/h 11.0mph /  17.7km/h 82% 0.00in /  0mm
05:25 49.0 °F /  9.4 °C 43.4 °F /  6.3 °C 29.58in /  1001.6hPa SW 5.0mph /  8km/h 14.0mph /  22.5km/h 81% 0.00in /  0mm
05:30 49.2 °F /  9.6 °C 43.3 °F /  6.3 °C 29.58in /  1001.6hPa SW 5.0mph /  8km/h 14.0mph /  22.5km/h 80% 0.00in /  0mm
05:35 49.3 °F /  9.6 °C 43.4 °F /  6.3 °C 29.58in /  1001.6hPa SW 5.0mph /  8km/h 15.0mph /  24.1km/h 80% 0.00in /  0mm
05:40 49.4 °F /  9.7 °C 43.2 °F /  6.2 °C 29.58in /  1001.6hPa WSW 6.0mph /  9.7km/h 11.0mph /  17.7km/h 79% 0.00in /  0mm
05:45 49.5 °F /  9.7 °C 43.3 °F /  6.3 °C 29.58in /  1001.6hPa SW 8.0mph /  12.9km/h 12.0mph /  19.3km/h 79% 0.00in /  0mm
05:50 49.5 °F /  9.7 °C 43.3 °F /  6.3 °C 29.58in /  1001.6hPa WSW 6.0mph /  9.7km/h 12.0mph /  19.3km/h 79% 0.00in /  0mm
05:55 49.4 °F /  9.7 °C 43.2 °F /  6.2 °C 29.58in /  1001.6hPa SSW 3.0mph /  4.8km/h 10.0mph /  16.1km/h 79% 0.00in /  0mm
06:00 49.3 °F /  9.6 °C 43.1 °F /  6.2 °C 29.58in /  1001.6hPa West 7.0mph /  11.3km/h 8.0mph /  12.9km/h 79% 0.00in /  0mm
06:05 49.2 °F /  9.6 °C 43.0 °F /  6.1 °C 29.57in /  1001.2hPa WSW 4.0mph /  6.4km/h 10.0mph /  16.1km/h 79% 0.00in /  0mm
06:10 49.1 °F /  9.5 °C 43.2 °F /  6.2 °C 29.57in /  1001.2hPa WSW 4.0mph /  6.4km/h 10.0mph /  16.1km/h 80% 0.00in /  0mm
06:15 49.0 °F /  9.4 °C 43.1 °F /  6.2 °C 29.57in /  1001.2hPa WSW 4.0mph /  6.4km/h 9.0mph /  14.5km/h 80% 0.00in /  0mm
06:20 48.9 °F /  9.4 °C 43.3 °F /  6.3 °C 29.57in /  1001.2hPa WSW 4.0mph /  6.4km/h 7.0mph /  11.3km/h 81% 0.00in /  0mm
06:25 48.9 °F /  9.4 °C 43.3 °F /  6.3 °C 29.58in /  1001.6hPa WSW 3.0mph /  4.8km/h 7.0mph /  11.3km/h 81% 0.00in /  0mm
06:30 48.9 °F /  9.4 °C 43.3 °F /  6.3 °C 29.58in /  1001.6hPa WSW 3.0mph /  4.8km/h 5.0mph /  8km/h 81% 0.00in /  0mm
06:35 48.9 °F /  9.4 °C 43.6 °F /  6.4 °C 29.58in /  1001.6hPa Calm   5.0mph /  8km/h 82% 0.00in /  0mm
06:40 49.1 °F /  9.5 °C 43.8 °F /  6.6 °C 29.57in /  1001.2hPa WSW 2.0mph /  3.2km/h 11.0mph /  17.7km/h 82% 0.00in /  0mm
06:45 49.4 °F /  9.7 °C 44.1 °F /  6.7 °C 29.57in /  1001.2hPa SW 4.0mph /  6.4km/h 11.0mph /  17.7km/h 82% 0.00in /  0mm
06:50 49.9 °F /  9.9 °C 43.3 °F /  6.3 °C 29.57in /  1001.2hPa SW 5.0mph /  8km/h 18.0mph /  29km/h 78% 0.00in /  0mm
06:55 50.6 °F /  10.3 °C 43.0 °F /  6.1 °C 29.56in /  1000.9hPa SW 6.0mph /  9.7km/h 18.0mph /  29km/h 75% 0.00in /  0mm
07:00 51.0 °F /  10.6 °C 42.6 °F /  5.9 °C 29.56in /  1000.9hPa SW 5.0mph /  8km/h 10.0mph /  16.1km/h 73% 0.00in /  0mm
07:05 51.2 °F /  10.7 °C 42.5 °F /  5.8 °C 29.56in /  1000.9hPa WSW 3.0mph /  4.8km/h 11.0mph /  17.7km/h 72% 0.00in /  0mm
07:10 51.2 °F /  10.7 °C 42.8 °F /  6 °C 29.56in /  1000.9hPa SW 4.0mph /  6.4km/h 11.0mph /  17.7km/h 73% 0.00in /  0mm
07:15 51.3 °F /  10.7 °C 42.9 °F /  6.1 °C 29.56in /  1000.9hPa SW 4.0mph /  6.4km/h 9.0mph /  14.5km/h 73% 0.00in /  0mm
07:20 51.4 °F /  10.8 °C 43.0 °F /  6.1 °C 29.56in /  1000.9hPa SW 6.0mph /  9.7km/h 9.0mph /  14.5km/h 73% 0.00in /  0mm
07:25 51.5 °F /  10.8 °C 43.1 °F /  6.2 °C 29.56in /  1000.9hPa SSW 2.0mph /  3.2km/h 8.0mph /  12.9km/h 73% 0.00in /  0mm
07:30 51.7 °F /  10.9 °C 43.3 °F /  6.3 °C 29.56in /  1000.9hPa West 8.0mph /  12.9km/h 10.0mph /  16.1km/h 73% 0.00in /  0mm
07:35 51.8 °F /  11 °C 43.4 °F /  6.3 °C 29.56in /  1000.9hPa SSW 3.0mph /  4.8km/h 8.0mph /  12.9km/h 73% 0.00in /  0mm
07:40 51.7 °F /  10.9 °C 43.7 °F /  6.5 °C 29.56in /  1000.9hPa West 5.0mph /  8km/h 8.0mph /  12.9km/h 74% 0.00in /  0mm
07:45 51.7 °F /  10.9 °C 43.7 °F /  6.5 °C 29.56in /  1000.9hPa SW 5.0mph /  8km/h 8.0mph /  12.9km/h 74% 0.00in /  0mm
07:50 51.7 °F /  10.9 °C 43.7 °F /  6.5 °C 29.56in /  1000.9hPa SW 4.0mph /  6.4km/h 7.0mph /  11.3km/h 74% 0.00in /  0mm
07:55 51.8 °F /  11 °C 43.8 °F /  6.6 °C 29.56in /  1000.9hPa SW 3.0mph /  4.8km/h 7.0mph /  11.3km/h 74% 0.00in /  0mm
08:00 51.8 °F /  11 °C 43.8 °F /  6.6 °C 29.56in /  1000.9hPa SW 3.0mph /  4.8km/h 5.0mph /  8km/h 74% 0.00in /  0mm
08:05 51.9 °F /  11.1 °C 43.5 °F /  6.4 °C 29.56in /  1000.9hPa SW 4.0mph /  6.4km/h 9.0mph /  14.5km/h 73% 0.00in /  0mm
08:10 51.9 °F /  11.1 °C 43.9 °F /  6.6 °C 29.56in /  1000.9hPa SW 4.0mph /  6.4km/h 9.0mph /  14.5km/h 74% 0.00in /  0mm
08:15 51.9 °F /  11.1 °C 44.2 °F /  6.8 °C 29.56in /  1000.9hPa SW 2.0mph /  3.2km/h 5.0mph /  8km/h 75% 0.00in /  0mm
08:20 52.0 °F /  11.1 °C 44.0 °F /  6.7 °C 29.56in /  1000.9hPa SSW 1.0mph /  1.6km/h 6.0mph /  9.7km/h 74% 0.00in /  0mm
08:25 52.0 °F /  11.1 °C 44.0 °F /  6.7 °C 29.56in /  1000.9hPa SW 5.0mph /  8km/h 9.0mph /  14.5km/h 74% 0.00in /  0mm
08:30 52.1 °F /  11.2 °C 43.7 °F /  6.5 °C 29.56in /  1000.9hPa South 6.0mph /  9.7km/h 9.0mph /  14.5km/h 73% 0.00in /  0mm
08:35 52.1 °F /  11.2 °C 43.3 °F /  6.3 °C 29.56in /  1000.9hPa SW 5.0mph /  8km/h 12.0mph /  19.3km/h 72% 0.00in /  0mm
08:40 52.1 °F /  11.2 °C 43.3 °F /  6.3 °C 29.56in /  1000.9hPa SSW 2.0mph /  3.2km/h 9.0mph /  14.5km/h 72% 0.00in /  0mm
08:45 52.0 °F /  11.1 °C 43.3 °F /  6.3 °C 29.56in /  1000.9hPa SSW 4.0mph /  6.4km/h 11.0mph /  17.7km/h 72% 0.00in /  0mm
08:50 52.0 °F /  11.1 °C 43.3 °F /  6.3 °C 29.55in /  1000.6hPa SSW 4.0mph /  6.4km/h 11.0mph /  17.7km/h 72% 0.00in /  0mm
08:55 52.1 °F /  11.2 °C 43.3 °F /  6.3 °C 29.56in /  1000.9hPa SSW 4.0mph /  6.4km/h 9.0mph /  14.5km/h 72% 0.00in /  0mm
09:00 52.1 °F /  11.2 °C 43.3 °F /  6.3 °C 29.56in /  1000.9hPa SSW 4.0mph /  6.4km/h 12.0mph /  19.3km/h 72% 0.00in /  0mm
09:05 52.1 °F /  11.2 °C 43.3 °F /  6.3 °C 29.56in /  1000.9hPa SSW 5.0mph /  8km/h 12.0mph /  19.3km/h 72% 0.00in /  0mm
09:10 52.0 °F /  11.1 °C 43.6 °F /  6.4 °C 29.56in /  1000.9hPa SSW 3.0mph /  4.8km/h 12.0mph /  19.3km/h 73% 0.00in /  0mm
09:15 51.8 °F /  11 °C 43.8 °F /  6.6 °C 29.56in /  1000.9hPa SSW 7.0mph /  11.3km/h 15.0mph /  24.1km/h 74% 0.00in /  0mm
09:20 51.4 °F /  10.8 °C 43.7 °F /  6.5 °C 29.56in /  1000.9hPa SSW 3.0mph /  4.8km/h 14.0mph /  22.5km/h 75% 0.00in /  0mm
09:25 51.4 °F /  10.8 °C 43.7 °F /  6.5 °C 29.56in /  1000.9hPa SW 5.0mph /  8km/h 15.0mph /  24.1km/h 75% 0.00in /  0mm
09:30 51.4 °F /  10.8 °C 44.1 °F /  6.7 °C 29.56in /  1000.9hPa South 5.0mph /  8km/h 15.0mph /  24.1km/h 76% 0.00in /  0mm
09:35 51.0 °F /  10.6 °C 44.4 °F /  6.9 °C 29.56in /  1000.9hPa South 7.0mph /  11.3km/h 11.0mph /  17.7km/h 78% 0.00in /  0mm
09:40 50.9 °F /  10.5 °C 44.9 °F /  7.2 °C 29.55in /  1000.6hPa SSW 4.0mph /  6.4km/h 12.0mph /  19.3km/h 80% 0.00in /  0mm
09:45 50.9 °F /  10.5 °C 44.9 °F /  7.2 °C 29.55in /  1000.6hPa SSW 5.0mph /  8km/h 12.0mph /  19.3km/h 80% 0.00in /  0mm
09:50 51.2 °F /  10.7 °C 45.6 °F /  7.6 °C 29.55in /  1000.6hPa SSW 5.0mph /  8km/h 10.0mph /  16.1km/h 81% 0.00in /  0mm
09:55 51.3 °F /  10.7 °C 45.7 °F /  7.6 °C 29.55in /  1000.6hPa SSW 5.0mph /  8km/h 9.0mph /  14.5km/h 81% 0.00in /  0mm
10:00 51.4 °F /  10.8 °C 46.1 °F /  7.8 °C 29.55in /  1000.6hPa SSE 5.0mph /  8km/h 14.0mph /  22.5km/h 82% 0.00in /  0mm
10:05 51.4 °F /  10.8 °C 45.8 °F /  7.7 °C 29.55in /  1000.6hPa SW 6.0mph /  9.7km/h 12.0mph /  19.3km/h 81% 0.00in /  0mm
10:10 51.7 °F /  10.9 °C 45.7 °F /  7.6 °C 29.54in /  1000.2hPa SW 7.0mph /  11.3km/h 14.0mph /  22.5km/h 80% 0.00in /  0mm
10:15 52.3 °F /  11.3 °C 46.3 °F /  7.9 °C 29.54in /  1000.2hPa SSW 5.0mph /  8km/h 14.0mph /  22.5km/h 80% 0.00in /  0mm
10:20 52.8 °F /  11.6 °C 46.5 °F /  8.1 °C 29.54in /  1000.2hPa SSW 5.0mph /  8km/h 11.0mph /  17.7km/h 79% 0.00in /  0mm
10:25 52.8 °F /  11.6 °C 45.4 °F /  7.4 °C 29.54in /  1000.2hPa SSW 6.0mph /  9.7km/h 14.0mph /  22.5km/h 76% 0.00in /  0mm
10:30 53.0 °F /  11.7 °C 45.6 °F /  7.6 °C 29.54in /  1000.2hPa SW 6.0mph /  9.7km/h 14.0mph /  22.5km/h 76% 0.00in /  0mm
10:35 53.0 °F /  11.7 °C 44.9 °F /  7.2 °C 29.54in /  1000.2hPa SW 6.0mph /  9.7km/h 16.0mph /  25.7km/h 74% 0.00in /  0mm
10:40 53.2 °F /  11.8 °C 45.5 °F /  7.5 °C 29.53in /  999.9hPa SSE 9.0mph /  14.5km/h 16.0mph /  25.7km/h 75% 0.00in /  0mm
10:45 53.2 °F /  11.8 °C 45.1 °F /  7.3 °C 29.53in /  999.9hPa SSW 7.0mph /  11.3km/h 16.0mph /  25.7km/h 74% 0.00in /  0mm
10:50 53.3 °F /  11.8 °C 44.5 °F /  6.9 °C 29.53in /  999.9hPa SSW 7.0mph /  11.3km/h 17.0mph /  27.4km/h 72% 0.00in /  0mm
10:55 53.3 °F /  11.8 °C 44.5 °F /  6.9 °C 29.53in /  999.9hPa South 8.0mph /  12.9km/h 16.0mph /  25.7km/h 72% 0.00in /  0mm
11:00 51.6 °F /  10.9 °C 42.9 °F /  6.1 °C 29.56in /  1000.9hPa West 19.0mph /  30.6km/h 25.0mph /  40.2km/h 72% 0.01in /  0.25mm
11:05 47.9 °F /  8.8 °C 42.0 °F /  5.6 °C 29.56in /  1000.9hPa WNW 5.0mph /  8km/h 28.0mph /  45.1km/h 80% 0.01in /  0.25mm
11:10 46.8 °F /  8.2 °C 42.2 °F /  5.7 °C 29.56in /  1000.9hPa WSW 14.0mph /  22.5km/h 21.0mph /  33.8km/h 84% 0.01in /  0.25mm
11:15 46.4 °F /  8 °C 42.1 °F /  5.6 °C 29.56in /  1000.9hPa WSW 9.0mph /  14.5km/h 21.0mph /  33.8km/h 85% 0.02in /  0.51mm
11:20 46.3 °F /  7.9 °C 42.3 °F /  5.7 °C 29.56in /  1000.9hPa WSW 10.0mph /  16.1km/h 17.0mph /  27.4km/h 86% 0.02in /  0.51mm
11:25 46.2 °F /  7.9 °C 42.2 °F /  5.7 °C 29.56in /  1000.9hPa WSW 10.0mph /  16.1km/h 18.0mph /  29km/h 86% 0.03in /  0.76mm
11:30 46.1 °F /  7.8 °C 42.4 °F /  5.8 °C 29.56in /  1000.9hPa WSW 10.0mph /  16.1km/h 19.0mph /  30.6km/h 87% 0.03in /  0.76mm
11:35 46.3 °F /  7.9 °C 42.6 °F /  5.9 °C 29.57in /  1001.2hPa WSW 9.0mph /  14.5km/h 19.0mph /  30.6km/h 87% 0.04in /  1.02mm
11:40 46.2 °F /  7.9 °C 42.5 °F /  5.8 °C 29.56in /  1000.9hPa SSW 7.0mph /  11.3km/h 29.0mph /  46.7km/h 87% 0.04in /  1.02mm
11:45 46.3 °F /  7.9 °C 42.6 °F /  5.9 °C 29.56in /  1000.9hPa WSW 8.0mph /  12.9km/h 29.0mph /  46.7km/h 87% 0.04in /  1.02mm
11:50 46.7 °F /  8.2 °C 43.0 °F /  6.1 °C 29.56in /  1000.9hPa WSW 5.0mph /  8km/h 14.0mph /  22.5km/h 87% 0.04in /  1.02mm
11:55 47.1 °F /  8.4 °C 43.1 °F /  6.2 °C 29.56in /  1000.9hPa WSW 10.0mph /  16.1km/h 11.0mph /  17.7km/h 86% 0.04in /  1.02mm
12:00 47.2 °F /  8.4 °C 43.2 °F /  6.2 °C 29.56in /  1000.9hPa WSW 6.0mph /  9.7km/h 20.0mph /  32.2km/h 86% 0.03in /  0.76mm
12:05 47.3 °F /  8.5 °C 43.3 °F /  6.3 °C 29.56in /  1000.9hPa WSW 9.0mph /  14.5km/h 16.0mph /  25.7km/h 86% 0.03in /  0.76mm
12:10 47.4 °F /  8.6 °C 43.1 °F /  6.2 °C 29.56in /  1000.9hPa WSW 7.0mph /  11.3km/h 15.0mph /  24.1km/h 85% 0.03in /  0.76mm
12:15 47.5 °F /  8.6 °C 42.9 °F /  6.1 °C 29.56in /  1000.9hPa WSW 9.0mph /  14.5km/h 20.0mph /  32.2km/h 84% 0.02in /  0.51mm
12:20 47.5 °F /  8.6 °C 42.9 °F /  6.1 °C 29.57in /  1001.2hPa WSW 10.0mph /  16.1km/h 21.0mph /  33.8km/h 84% 0.02in /  0.51mm
12:25 47.4 °F /  8.6 °C 42.5 °F /  5.8 °C 29.56in /  1000.9hPa WSW 10.0mph /  16.1km/h 21.0mph /  33.8km/h 83% 0.01in /  0.25mm
12:30 47.3 °F /  8.5 °C 42.1 °F /  5.6 °C 29.57in /  1001.2hPa WSW 12.0mph /  19.3km/h 22.0mph /  35.4km/h 82% 0.01in /  0.25mm
12:35 47.1 °F /  8.4 °C 42.2 °F /  5.7 °C 29.57in /  1001.2hPa SW 8.0mph /  12.9km/h 20.0mph /  32.2km/h 83% 0.00in /  0mm
12:40 46.8 °F /  8.2 °C 41.9 °F /  5.5 °C 29.57in /  1001.2hPa WSW 18.0mph /  29km/h 22.0mph /  35.4km/h 83% 0.00in /  0mm
12:45 46.9 °F /  8.3 °C 42.0 °F /  5.6 °C 29.57in /  1001.2hPa SW 7.0mph /  11.3km/h 23.0mph /  37km/h 83% 0.00in /  0mm
12:50 47.2 °F /  8.4 °C 42.6 °F /  5.9 °C 29.57in /  1001.2hPa WSW 9.0mph /  14.5km/h 23.0mph /  37km/h 84% 0.00in /  0mm
12:55 47.5 °F /  8.6 °C 42.9 °F /  6.1 °C 29.57in /  1001.2hPa WSW 8.0mph /  12.9km/h 21.0mph /  33.8km/h 84% 0.00in /  0mm
13:00 47.0 °F /  8.3 °C 42.1 °F /  5.6 °C 29.57in /  1001.2hPa West 12.0mph /  19.3km/h 21.0mph /  33.8km/h 83% 0.00in /  0mm
13:05 46.9 °F /  8.3 °C 42.6 °F /  5.9 °C 29.57in /  1001.2hPa WSW 7.0mph /  11.3km/h 17.0mph /  27.4km/h 85% 0.00in /  0mm
13:10 46.9 °F /  8.3 °C 42.6 °F /  5.9 °C 29.57in /  1001.2hPa WSW 10.0mph /  16.1km/h 17.0mph /  27.4km/h 85% 0.00in /  0mm
13:15 46.7 °F /  8.2 °C 42.4 °F /  5.8 °C 29.58in /  1001.6hPa SW 9.0mph /  14.5km/h 20.0mph /  32.2km/h 85% 0.00in /  0mm
13:20 46.3 °F /  7.9 °C 42.0 °F /  5.6 °C 29.58in /  1001.6hPa SW 10.0mph /  16.1km/h 20.0mph /  32.2km/h 85% 0.01in /  0.25mm
13:25 46.2 °F /  7.9 °C 41.9 °F /  5.5 °C 29.58in /  1001.6hPa WSW 10.0mph /  16.1km/h 23.0mph /  37km/h 85% 0.01in /  0.25mm
13:30 46.2 °F /  7.9 °C 41.9 °F /  5.5 °C 29.58in /  1001.6hPa SW 12.0mph /  19.3km/h 24.0mph /  38.6km/h 85% 0.01in /  0.25mm
13:35 46.2 °F /  7.9 °C 42.2 °F /  5.7 °C 29.58in /  1001.6hPa SSW 15.0mph /  24.1km/h 18.0mph /  29km/h 86% 0.01in /  0.25mm
13:40 46.2 °F /  7.9 °C 41.9 °F /  5.5 °C 29.58in /  1001.6hPa West 14.0mph /  22.5km/h 23.0mph /  37km/h 85% 0.01in /  0.25mm
13:45 46.3 °F /  7.9 °C 42.0 °F /  5.6 °C 29.58in /  1001.6hPa WSW 12.0mph /  19.3km/h 23.0mph /  37km/h 85% 0.01in /  0.25mm
13:50 46.2 °F /  7.9 °C 41.6 °F /  5.3 °C 29.58in /  1001.6hPa SW 12.0mph /  19.3km/h 23.0mph /  37km/h 84% 0.01in /  0.25mm
13:55 46.2 °F /  7.9 °C 41.3 °F /  5.2 °C 29.59in /  1001.9hPa West 10.0mph /  16.1km/h 24.0mph /  38.6km/h 83% 0.01in /  0.25mm
14:00 46.5 °F /  8.1 °C 41.9 °F /  5.5 °C 29.59in /  1001.9hPa SW 12.0mph /  19.3km/h 27.0mph /  43.5km/h 84% 0.01in /  0.25mm
14:05 46.5 °F /  8.1 °C 41.6 °F /  5.3 °C 29.58in /  1001.6hPa West 9.0mph /  14.5km/h 24.0mph /  38.6km/h 83% 0.01in /  0.25mm
14:10 47.0 °F /  8.3 °C 42.1 °F /  5.6 °C 29.59in /  1001.9hPa SW 14.0mph /  22.5km/h 24.0mph /  38.6km/h 83% 0.01in /  0.25mm
14:15 47.1 °F /  8.4 °C 42.2 °F /  5.7 °C 29.59in /  1001.9hPa WSW 7.0mph /  11.3km/h 23.0mph /  37km/h 83% 0.01in /  0.25mm
14:20 47.3 °F /  8.5 °C 42.1 °F /  5.6 °C 29.59in /  1001.9hPa SW 13.0mph /  20.9km/h 24.0mph /  38.6km/h 82% 0.00in /  0mm
14:25 47.0 °F /  8.3 °C 41.5 °F /  5.3 °C 29.60in /  1002.3hPa WSW 13.0mph /  20.9km/h 28.0mph /  45.1km/h 81% 0.00in /  0mm
14:30 46.8 °F /  8.2 °C 41.3 °F /  5.2 °C 29.60in /  1002.3hPa SW 10.0mph /  16.1km/h 25.0mph /  40.2km/h 81% 0.00in /  0mm
14:35 47.0 °F /  8.3 °C 41.5 °F /  5.3 °C 29.60in /  1002.3hPa South 6.0mph /  9.7km/h 20.0mph /  32.2km/h 81% 0.00in /  0mm
14:40 47.3 °F /  8.5 °C 41.8 °F /  5.4 °C 29.60in /  1002.3hPa West 7.0mph /  11.3km/h 19.0mph /  30.6km/h 81% 0.00in /  0mm
14:45 47.3 °F /  8.5 °C 41.4 °F /  5.2 °C 29.60in /  1002.3hPa WSW 14.0mph /  22.5km/h 22.0mph /  35.4km/h 80% 0.00in /  0mm
14:50 47.5 °F /  8.6 °C 41.6 °F /  5.3 °C 29.60in /  1002.3hPa SW 10.0mph /  16.1km/h 23.0mph /  37km/h 80% 0.00in /  0mm
14:55 47.7 °F /  8.7 °C 41.5 °F /  5.3 °C 29.60in /  1002.3hPa SW 11.0mph /  17.7km/h 26.0mph /  41.8km/h 79% 0.00in /  0mm
15:00 47.9 °F /  8.8 °C 41.4 °F /  5.2 °C 29.60in /  1002.3hPa WSW 12.0mph /  19.3km/h 21.0mph /  33.8km/h 78% 0.00in /  0mm
15:05 48.6 °F /  9.2 °C 41.7 °F /  5.4 °C 29.60in /  1002.3hPa SSW 18.0mph /  29km/h 22.0mph /  35.4km/h 77% 0.00in /  0mm
15:10 48.4 °F /  9.1 °C 41.2 °F /  5.1 °C 29.60in /  1002.3hPa SW 15.0mph /  24.1km/h 28.0mph /  45.1km/h 76% 0.00in /  0mm
15:15 48.6 °F /  9.2 °C 41.4 °F /  5.2 °C 29.61in /  1002.6hPa NW 9.0mph /  14.5km/h 22.0mph /  35.4km/h 76% 0.00in /  0mm
15:20 48.1 °F /  8.9 °C 41.2 °F /  5.1 °C 29.61in /  1002.6hPa WSW 11.0mph /  17.7km/h 22.0mph /  35.4km/h 77% 0.00in /  0mm
15:25 47.7 °F /  8.7 °C 40.8 °F /  4.9 °C 29.61in /  1002.6hPa WSW 11.0mph /  17.7km/h 22.0mph /  35.4km/h 77% 0.00in /  0mm
15:30 47.7 °F /  8.7 °C 40.8 °F /  4.9 °C 29.61in /  1002.6hPa WSW 12.0mph /  19.3km/h 25.0mph /  40.2km/h 77% 0.00in /  0mm
15:35 48.6 °F /  9.2 °C 42.0 °F /  5.6 °C 29.61in /  1002.6hPa NW 7.0mph /  11.3km/h 20.0mph /  32.2km/h 78% 0.00in /  0mm
15:40 48.7 °F /  9.3 °C 41.5 °F /  5.3 °C 29.61in /  1002.6hPa West 9.0mph /  14.5km/h 28.0mph /  45.1km/h 76% 0.00in /  0mm
15:45 48.6 °F /  9.2 °C 41.4 °F /  5.2 °C 29.62in /  1002.9hPa West 24.0mph /  38.6km/h 28.0mph /  45.1km/h 76% 0.00in /  0mm
15:50 48.5 °F /  9.2 °C 41.3 °F /  5.2 °C 29.61in /  1002.6hPa WSW 13.0mph /  20.9km/h 28.0mph /  45.1km/h 76% 0.00in /  0mm
15:55 48.2 °F /  9 °C 41.3 °F /  5.2 °C 29.61in /  1002.6hPa WSW 12.0mph /  19.3km/h 25.0mph /  40.2km/h 77% 0.00in /  0mm
16:00 48.5 °F /  9.2 °C 41.3 °F /  5.2 °C 29.62in /  1002.9hPa SW 13.0mph /  20.9km/h 25.0mph /  40.2km/h 76% 0.00in /  0mm
16:05 48.4 °F /  9.1 °C 41.2 °F /  5.1 °C 29.62in /  1002.9hPa SW 13.0mph /  20.9km/h 25.0mph /  40.2km/h 76% 0.00in /  0mm
16:10 48.6 °F /  9.2 °C 41.7 °F /  5.4 °C 29.62in /  1002.9hPa SW 13.0mph /  20.9km/h 25.0mph /  40.2km/h 77% 0.00in /  0mm
16:15 48.8 °F /  9.3 °C 41.2 °F /  5.1 °C 29.63in /  1003.3hPa SW 8.0mph /  12.9km/h 25.0mph /  40.2km/h 75% 0.00in /  0mm
16:20 48.7 °F /  9.3 °C 41.1 °F /  5.1 °C 29.63in /  1003.3hPa West 23.0mph /  37km/h 26.0mph /  41.8km/h 75% 0.00in /  0mm
16:25 47.9 °F /  8.8 °C 40.4 °F /  4.7 °C 29.63in /  1003.3hPa WSW 9.0mph /  14.5km/h 30.0mph /  48.3km/h 75% 0.00in /  0mm
16:30 47.7 °F /  8.7 °C 40.5 °F /  4.7 °C 29.63in /  1003.3hPa West 21.0mph /  33.8km/h 22.0mph /  35.4km/h 76% 0.00in /  0mm
16:35 47.4 °F /  8.6 °C 40.6 °F /  4.8 °C 29.63in /  1003.3hPa WSW 9.0mph /  14.5km/h 21.0mph /  33.8km/h 77% 0.00in /  0mm
16:40 47.2 °F /  8.4 °C 40.4 °F /  4.7 °C 29.63in /  1003.3hPa SW 13.0mph /  20.9km/h 30.0mph /  48.3km/h 77% 0.00in /  0mm
16:45 47.1 °F /  8.4 °C 40.3 °F /  4.6 °C 29.64in /  1003.6hPa SW 19.0mph /  30.6km/h 27.0mph /  43.5km/h 77% 0.00in /  0mm
16:50 47.2 °F /  8.4 °C 40.7 °F /  4.8 °C 29.64in /  1003.6hPa WSW 12.0mph /  19.3km/h 27.0mph /  43.5km/h 78% 0.00in /  0mm
16:55 47.0 °F /  8.3 °C 40.5 °F /  4.7 °C 29.64in /  1003.6hPa WSW 13.0mph /  20.9km/h 27.0mph /  43.5km/h 78% 0.00in /  0mm
17:00 47.0 °F /  8.3 °C 40.5 °F /  4.7 °C 29.64in /  1003.6hPa WSW 13.0mph /  20.9km/h 28.0mph /  45.1km/h 78% 0.00in /  0mm
17:05 47.1 °F /  8.4 °C 40.6 °F /  4.8 °C 29.65in /  1003.9hPa WSW 13.0mph /  20.9km/h 28.0mph /  45.1km/h 78% 0.00in /  0mm
17:10 47.0 °F /  8.3 °C 40.5 °F /  4.7 °C 29.64in /  1003.6hPa WSW 12.0mph /  19.3km/h 25.0mph /  40.2km/h 78% 0.00in /  0mm
17:15 47.0 °F /  8.3 °C 40.5 °F /  4.7 °C 29.65in /  1003.9hPa SSW 20.0mph /  32.2km/h 24.0mph /  38.6km/h 78% 0.00in /  0mm
17:20 46.9 °F /  8.3 °C 40.4 °F /  4.7 °C 29.65in /  1003.9hPa SW 13.0mph /  20.9km/h 28.0mph /  45.1km/h 78% 0.00in /  0mm
17:25 46.8 °F /  8.2 °C 40.3 °F /  4.6 °C 29.65in /  1003.9hPa SW 9.0mph /  14.5km/h 30.0mph /  48.3km/h 78% 0.00in /  0mm
17:30 46.7 °F /  8.2 °C 40.2 °F /  4.6 °C 29.65in /  1003.9hPa West 11.0mph /  17.7km/h 23.0mph /  37km/h 78% 0.00in /  0mm
17:35 46.7 °F /  8.2 °C 40.2 °F /  4.6 °C 29.66in /  1004.3hPa SW 11.0mph /  17.7km/h 25.0mph /  40.2km/h 78% 0.00in /  0mm
17:40 46.7 °F /  8.2 °C 40.2 °F /  4.6 °C 29.66in /  1004.3hPa West 14.0mph /  22.5km/h 23.0mph /  37km/h 78% 0.00in /  0mm
17:45 46.7 °F /  8.2 °C 40.2 °F /  4.6 °C 29.66in /  1004.3hPa WSW 13.0mph /  20.9km/h 23.0mph /  37km/h 78% 0.00in /  0mm
17:50 46.7 °F /  8.2 °C 40.2 °F /  4.6 °C 29.66in /  1004.3hPa WSW 13.0mph /  20.9km/h 26.0mph /  41.8km/h 78% 0.00in /  0mm
17:55 46.7 °F /  8.2 °C 40.2 °F /  4.6 °C 29.67in /  1004.6hPa WSW 14.0mph /  22.5km/h 26.0mph /  41.8km/h 78% 0.00in /  0mm
18:00 46.8 °F /  8.2 °C 40.6 °F /  4.8 °C 29.67in /  1004.6hPa WSW 13.0mph /  20.9km/h 25.0mph /  40.2km/h 79% 0.00in /  0mm
18:05 46.8 °F /  8.2 °C 40.6 °F /  4.8 °C 29.67in /  1004.6hPa WSW 11.0mph /  17.7km/h 24.0mph /  38.6km/h 79% 0.00in /  0mm
18:10 46.9 °F /  8.3 °C 40.4 °F /  4.7 °C 29.67in /  1004.6hPa SW 18.0mph /  29km/h 22.0mph /  35.4km/h 78% 0.00in /  0mm
18:15 46.9 °F /  8.3 °C 40.7 °F /  4.8 °C 29.67in /  1004.6hPa WSW 11.0mph /  17.7km/h 27.0mph /  43.5km/h 79% 0.00in /  0mm
18:20 46.9 °F /  8.3 °C 40.4 °F /  4.7 °C 29.67in /  1004.6hPa WSW 12.0mph /  19.3km/h 27.0mph /  43.5km/h 78% 0.00in /  0mm
18:25 47.0 °F /  8.3 °C 40.5 °F /  4.7 °C 29.68in /  1005hPa WSW 13.0mph /  20.9km/h 27.0mph /  43.5km/h 78% 0.00in /  0mm
18:30 47.0 °F /  8.3 °C 40.8 °F /  4.9 °C 29.68in /  1005hPa WSW 13.0mph /  20.9km/h 27.0mph /  43.5km/h 79% 0.00in /  0mm
18:35 47.0 °F /  8.3 °C 40.5 °F /  4.7 °C 29.68in /  1005hPa South 7.0mph /  11.3km/h 28.0mph /  45.1km/h 78% 0.00in /  0mm
18:40 47.0 °F /  8.3 °C 40.8 °F /  4.9 °C 29.68in /  1005hPa SE 11.0mph /  17.7km/h 25.0mph /  40.2km/h 79% 0.00in /  0mm
18:45 47.0 °F /  8.3 °C 40.5 °F /  4.7 °C 29.68in /  1005hPa SE 11.0mph /  17.7km/h 28.0mph /  45.1km/h 78% 0.00in /  0mm
18:50 47.0 °F /  8.3 °C 40.5 °F /  4.7 °C 29.68in /  1005hPa WSW 15.0mph /  24.1km/h 28.0mph /  45.1km/h 78% 0.00in /  0mm
18:55 47.0 °F /  8.3 °C 40.5 °F /  4.7 °C 29.68in /  1005hPa WSW 13.0mph /  20.9km/h 24.0mph /  38.6km/h 78% 0.00in /  0mm
19:00 46.9 °F /  8.3 °C 40.4 °F /  4.7 °C 29.68in /  1005hPa WSW 12.0mph /  19.3km/h 23.0mph /  37km/h 78% 0.00in /  0mm
19:05 46.9 °F /  8.3 °C 40.7 °F /  4.8 °C 29.69in /  1005.3hPa WNW 8.0mph /  12.9km/h 27.0mph /  43.5km/h 79% 0.00in /  0mm
19:10 46.8 °F /  8.2 °C 40.3 °F /  4.6 °C 29.69in /  1005.3hPa SW 9.0mph /  14.5km/h 23.0mph /  37km/h 78% 0.00in /  0mm
19:15 46.8 °F /  8.2 °C 40.3 °F /  4.6 °C 29.69in /  1005.3hPa SW 19.0mph /  30.6km/h 25.0mph /  40.2km/h 78% 0.00in /  0mm
19:20 46.8 °F /  8.2 °C 40.3 °F /  4.6 °C 29.69in /  1005.3hPa WSW 12.0mph /  19.3km/h 25.0mph /  40.2km/h 78% 0.00in /  0mm
19:25 46.8 °F /  8.2 °C 40.3 °F /  4.6 °C 29.69in /  1005.3hPa WSW 12.0mph /  19.3km/h 22.0mph /  35.4km/h 78% 0.00in /  0mm
19:30 46.7 °F /  8.2 °C 40.2 °F /  4.6 °C 29.70in /  1005.6hPa WSW 11.0mph /  17.7km/h 22.0mph /  35.4km/h 78% 0.00in /  0mm
19:35 46.7 °F /  8.2 °C 40.2 °F /  4.6 °C 29.70in /  1005.6hPa WSW 11.0mph /  17.7km/h 23.0mph /  37km/h 78% 0.00in /  0mm
19:40 46.6 °F /  8.1 °C 40.1 °F /  4.5 °C 29.69in /  1005.3hPa WSW 12.0mph /  19.3km/h 23.0mph /  37km/h 78% 0.00in /  0mm
19:45 46.7 °F /  8.2 °C 39.9 °F /  4.4 °C 29.70in /  1005.6hPa SSW 9.0mph /  14.5km/h 28.0mph /  45.1km/h 77% 0.00in /  0mm
19:50 46.6 °F /  8.1 °C 39.8 °F /  4.3 °C 29.70in /  1005.6hPa SW 14.0mph /  22.5km/h 23.0mph /  37km/h 77% 0.00in /  0mm
19:55 46.7 °F /  8.2 °C 40.2 °F /  4.6 °C 29.70in /  1005.6hPa WSW 13.0mph /  20.9km/h 24.0mph /  38.6km/h 78% 0.00in /  0mm
20:00 46.6 °F /  8.1 °C 40.1 °F /  4.5 °C 29.70in /  1005.6hPa WSW 8.0mph /  12.9km/h 25.0mph /  40.2km/h 78% 0.00in /  0mm
20:05 46.5 °F /  8.1 °C 40.0 °F /  4.4 °C 29.71in /  1006hPa WSW 11.0mph /  17.7km/h 23.0mph /  37km/h 78% 0.00in /  0mm
20:10 46.5 °F /  8.1 °C 40.0 °F /  4.4 °C 29.71in /  1006hPa SW 12.0mph /  19.3km/h 22.0mph /  35.4km/h 78% 0.00in /  0mm
20:15 46.5 °F /  8.1 °C 40.3 °F /  4.6 °C 29.71in /  1006hPa SSE 8.0mph /  12.9km/h 17.0mph /  27.4km/h 79% 0.00in /  0mm
20:20 46.5 °F /  8.1 °C 40.3 °F /  4.6 °C 29.71in /  1006hPa WSW 11.0mph /  17.7km/h 25.0mph /  40.2km/h 79% 0.00in /  0mm
20:25 46.4 °F /  8 °C 40.2 °F /  4.6 °C 29.71in /  1006hPa WSW 12.0mph /  19.3km/h 25.0mph /  40.2km/h 79% 0.00in /  0mm
20:30 46.3 °F /  7.9 °C 40.5 °F /  4.7 °C 29.72in /  1006.3hPa WSW 10.0mph /  16.1km/h 20.0mph /  32.2km/h 80% 0.00in /  0mm
20:35 46.2 °F /  7.9 °C 40.4 °F /  4.7 °C 29.72in /  1006.3hPa West 12.0mph /  19.3km/h 16.0mph /  25.7km/h 80% 0.00in /  0mm
20:40 46.2 °F /  7.9 °C 40.4 °F /  4.7 °C 29.72in /  1006.3hPa West 7.0mph /  11.3km/h 19.0mph /  30.6km/h 80% 0.00in /  0mm
20:45 46.1 °F /  7.8 °C 40.3 °F /  4.6 °C 29.72in /  1006.3hPa WNW 6.0mph /  9.7km/h 20.0mph /  32.2km/h 80% 0.00in /  0mm
20:50 46.0 °F /  7.8 °C 40.5 °F /  4.7 °C 29.73in /  1006.7hPa WSW 15.0mph /  24.1km/h 22.0mph /  35.4km/h 81% 0.00in /  0mm
20:55 46.0 °F /  7.8 °C 40.5 °F /  4.7 °C 29.73in /  1006.7hPa WSW 10.0mph /  16.1km/h 22.0mph /  35.4km/h 81% 0.00in /  0mm
21:00 45.9 °F /  7.7 °C 40.4 °F /  4.7 °C 29.73in /  1006.7hPa WSW 10.0mph /  16.1km/h 21.0mph /  33.8km/h 81% 0.00in /  0mm
21:05 45.9 °F /  7.7 °C 40.4 °F /  4.7 °C 29.73in /  1006.7hPa WSW 10.0mph /  16.1km/h 22.0mph /  35.4km/h 81% 0.00in /  0mm
21:10 46.0 °F /  7.8 °C 40.5 °F /  4.7 °C 29.73in /  1006.7hPa WSW 11.0mph /  17.7km/h 22.0mph /  35.4km/h 81% 0.00in /  0mm
21:15 46.0 °F /  7.8 °C 40.5 °F /  4.7 °C 29.74in /  1007hPa SSW 11.0mph /  17.7km/h 22.0mph /  35.4km/h 81% 0.00in /  0mm
21:20 46.0 °F /  7.8 °C 40.5 °F /  4.7 °C 29.74in /  1007hPa WSW 16.0mph /  25.7km/h 18.0mph /  29km/h 81% 0.00in /  0mm
21:25 46.0 °F /  7.8 °C 40.5 °F /  4.7 °C 29.74in /  1007hPa WSW 9.0mph /  14.5km/h 23.0mph /  37km/h 81% 0.00in /  0mm
21:30 46.0 °F /  7.8 °C 40.5 °F /  4.7 °C 29.74in /  1007hPa WSW 9.0mph /  14.5km/h 23.0mph /  37km/h 81% 0.00in /  0mm
21:35 45.9 °F /  7.7 °C 40.4 °F /  4.7 °C 29.74in /  1007hPa WSW 13.0mph /  20.9km/h 18.0mph /  29km/h 81% 0.00in /  0mm
21:40 46.0 °F /  7.8 °C 40.5 °F /  4.7 °C 29.74in /  1007hPa West 9.0mph /  14.5km/h 26.0mph /  41.8km/h 81% 0.00in /  0mm
21:45 46.0 °F /  7.8 °C 40.2 °F /  4.6 °C 29.74in /  1007hPa West 9.0mph /  14.5km/h 23.0mph /  37km/h 80% 0.00in /  0mm
21:50 46.1 °F /  7.8 °C 40.3 °F /  4.6 °C 29.75in /  1007.3hPa WSW 19.0mph /  30.6km/h 19.0mph /  30.6km/h 80% 0.00in /  0mm
21:55 46.1 °F /  7.8 °C 40.3 °F /  4.6 °C 29.75in /  1007.3hPa WSW 9.0mph /  14.5km/h 19.0mph /  30.6km/h 80% 0.00in /  0mm
22:00 46.1 °F /  7.8 °C 40.3 °F /  4.6 °C 29.75in /  1007.3hPa WSW 10.0mph /  16.1km/h 20.0mph /  32.2km/h 80% 0.00in /  0mm
22:05 46.1 °F /  7.8 °C 40.3 °F /  4.6 °C 29.75in /  1007.3hPa WSW 10.0mph /  16.1km/h 20.0mph /  32.2km/h 80% 0.00in /  0mm
22:10 46.2 °F /  7.9 °C 40.4 °F /  4.7 °C 29.75in /  1007.3hPa WSW 10.0mph /  16.1km/h 18.0mph /  29km/h 80% 0.00in /  0mm
22:15 46.2 °F /  7.9 °C 40.4 °F /  4.7 °C 29.75in /  1007.3hPa WSW 10.0mph /  16.1km/h 22.0mph /  35.4km/h 80% 0.00in /  0mm
22:20 46.2 °F /  7.9 °C 40.4 °F /  4.7 °C 29.76in /  1007.7hPa SW 13.0mph /  20.9km/h 19.0mph /  30.6km/h 80% 0.00in /  0mm
22:25 46.3 °F /  7.9 °C 40.5 °F /  4.7 °C 29.75in /  1007.3hPa South 10.0mph /  16.1km/h 25.0mph /  40.2km/h 80% 0.00in /  0mm
22:30 46.4 °F /  8 °C 40.6 °F /  4.8 °C 29.76in /  1007.7hPa WSW 12.0mph /  19.3km/h 17.0mph /  27.4km/h 80% 0.00in /  0mm
22:35 46.3 °F /  7.9 °C 40.5 °F /  4.7 °C 29.76in /  1007.7hPa WSW 10.0mph /  16.1km/h 23.0mph /  37km/h 80% 0.00in /  0mm
22:40 46.4 °F /  8 °C 40.6 °F /  4.8 °C 29.76in /  1007.7hPa SSE 11.0mph /  17.7km/h 24.0mph /  38.6km/h 80% 0.00in /  0mm
22:45 46.4 °F /  8 °C 40.6 °F /  4.8 °C 29.76in /  1007.7hPa WSW 7.0mph /  11.3km/h 25.0mph /  40.2km/h 80% 0.00in /  0mm
22:50 46.3 °F /  7.9 °C 40.5 °F /  4.7 °C 29.76in /  1007.7hPa WSW 10.0mph /  16.1km/h 25.0mph /  40.2km/h 80% 0.00in /  0mm
22:55 46.1 °F /  7.8 °C 40.3 °F /  4.6 °C 29.76in /  1007.7hPa WSW 9.0mph /  14.5km/h 18.0mph /  29km/h 80% 0.00in /  0mm
23:00 46.1 °F /  7.8 °C 40.6 °F /  4.8 °C 29.76in /  1007.7hPa WSW 10.0mph /  16.1km/h 18.0mph /  29km/h 81% 0.00in /  0mm
23:05 46.0 °F /  7.8 °C 40.5 °F /  4.7 °C 29.76in /  1007.7hPa WSW 12.0mph /  19.3km/h 21.0mph /  33.8km/h 81% 0.00in /  0mm
23:10 46.0 °F /  7.8 °C 40.5 °F /  4.7 °C 29.76in /  1007.7hPa WSW 15.0mph /  24.1km/h 17.0mph /  27.4km/h 81% 0.00in /  0mm
23:15 45.9 °F /  7.7 °C 40.4 °F /  4.7 °C 29.76in /  1007.7hPa SSW 6.0mph /  9.7km/h 21.0mph /  33.8km/h 81% 0.00in /  0mm
23:20 45.8 °F /  7.7 °C 40.3 °F /  4.6 °C 29.76in /  1007.7hPa WSW 10.0mph /  16.1km/h 21.0mph /  33.8km/h 81% 0.00in /  0mm
23:25 45.9 °F /  7.7 °C 40.7 °F /  4.8 °C 29.77in /  1008hPa WSW 9.0mph /  14.5km/h 17.0mph /  27.4km/h 82% 0.00in /  0mm
23:30 46.0 °F /  7.8 °C 40.8 °F /  4.9 °C 29.77in /  1008hPa WSW 9.0mph /  14.5km/h 16.0mph /  25.7km/h 82% 0.00in /  0mm
23:35 46.1 °F /  7.8 °C 40.9 °F /  4.9 °C 29.77in /  1008hPa WSW 8.0mph /  12.9km/h 16.0mph /  25.7km/h 82% 0.00in /  0mm
23:40 46.1 °F /  7.8 °C 40.9 °F /  4.9 °C 29.76in /  1007.7hPa WSW 9.0mph /  14.5km/h 19.0mph /  30.6km/h 82% 0.00in /  0mm
23:45 46.1 °F /  7.8 °C 40.6 °F /  4.8 °C 29.76in /  1007.7hPa SW 11.0mph /  17.7km/h 22.0mph /  35.4km/h 81% 0.00in /  0mm
23:50 46.1 °F /  7.8 °C 40.6 °F /  4.8 °C 29.76in /  1007.7hPa West 7.0mph /  11.3km/h 19.0mph /  30.6km/h 81% 0.00in /  0mm
23:55 46.0 °F /  7.8 °C 40.5 °F /  4.7 °C 29.76in /  1007.7hPa West 5.0mph /  8km/h 18.0mph /  29km/h 81% 0.00in /  0mm
Buffalo, New York, USA
Compliments of Weather Underground - 2.5 mb